Time;durP1;ratioP1;P1;durP2;ratioP2;P2;SDS_P1;SDS_P2;PMS_P1;PMS_P2;Temp;Humidity;BMP_temperature;BMP_pressure;BME280_temperature;BME280_humidity;BME280_pressure;Samples;Min_cycle;Max_cycle;Signal;HPM_P1;HPM_P2
2023/12/23 00:01:46;;;;;;;;;;;6.80;99.90;;;;;;5107169;27;19972;-83
2023/12/23 00:04:11;;;;;;;;;;;6.80;99.90;;;;;;5089866;27;19940;-79
2023/12/23 00:06:37;;;;;;;;;;;6.80;99.90;;;;;;5105822;27;19958;-82
2023/12/23 00:09:03;;;;;;;;;;;6.80;99.90;;;;;;5103621;27;20657;-83
2023/12/23 00:11:28;;;;;;;;;;;6.80;99.90;;;;;;5109061;27;19923;-85
2023/12/23 00:13:54;;;;;;;;;;;6.80;99.90;;;;;;5112043;27;20422;-85
2023/12/23 00:16:20;;;;;;;;;;;6.80;99.90;;;;;;5093398;27;19923;-83
2023/12/23 00:18:45;;;;;;;;;;;6.80;99.90;;;;;;5098398;27;20005;-83
2023/12/23 00:21:11;;;;;;;;;;;6.80;99.90;;;;;;5096113;27;19931;-79
2023/12/23 00:23:36;;;;;;;;;;;6.80;99.90;;;;;;5097435;27;20258;-81
2023/12/23 00:26:02;;;;;;;;;;;6.80;99.90;;;;;;5095632;27;20480;-81
2023/12/23 00:28:31;;;;;;;;;;;6.90;99.90;;;;;;5121181;27;20028;-81
2023/12/23 00:30:56;;;;;;;;;;;6.90;99.90;;;;;;5111641;27;19964;-79
2023/12/23 00:33:22;;;;;;;;;;;6.90;99.90;;;;;;5084942;27;20258;-80
2023/12/23 00:35:47;;;;;;;;;;;6.80;99.90;;;;;;5081058;27;19927;-80
2023/12/23 00:38:13;;;;;;;;;;;6.90;99.90;;;;;;5110677;27;19927;-79
2023/12/23 00:40:39;;;;;;;;;;;6.90;99.90;;;;;;5074087;27;19931;-80
2023/12/23 00:43:04;;;;;;;;;;;6.90;99.90;;;;;;5111767;27;19931;-78
2023/12/23 00:45:30;;;;;;;;;;;6.80;99.90;;;;;;5098841;27;20018;-80
2023/12/23 00:47:56;;;;;;;;;;;6.90;99.90;;;;;;5078181;27;19927;-81
2023/12/23 00:50:22;;;;;;;;;;;6.90;99.90;;;;;;5113302;27;19927;-79
2023/12/23 00:52:47;;;;;;;;;;;6.90;99.90;;;;;;5075862;27;19952;-79
2023/12/23 00:55:13;;;;;;;;;;;6.90;99.90;;;;;;5106742;27;19966;-81
2023/12/23 00:57:39;;;;;;;;;;;6.90;99.90;;;;;;5107540;27;19963;-82
2023/12/23 01:00:05;;;;;;;;;;;6.90;99.90;;;;;;5109224;27;20381;-83
2023/12/23 01:02:31;;;;;;;;;;;6.90;99.90;;;;;;5080471;27;19931;-79
2023/12/23 01:04:57;;;;;;;;;;;6.90;99.90;;;;;;5104618;27;19938;-80
2023/12/23 01:07:22;;;;;;;;;;;6.90;99.90;;;;;;5101876;27;19927;-80
2023/12/23 01:09:48;;;;;;;;;;;6.90;99.90;;;;;;5096575;27;19926;-82
2023/12/23 01:12:13;;;;;;;;;;;6.90;99.90;;;;;;5107521;27;19928;-80
2023/12/23 01:14:39;;;;;;;;;;;7.00;99.90;;;;;;5096355;27;19931;-82
2023/12/23 01:17:05;;;;;;;;;;;6.90;99.90;;;;;;5087986;27;21748;-81
2023/12/23 01:19:30;;;;;;;;;;;7.00;99.90;;;;;;5098383;27;20030;-80
2023/12/23 01:21:57;;;;;;;;;;;7.00;99.90;;;;;;5125657;27;20014;-79
2023/12/23 01:24:24;;;;;;;;;;;7.00;99.90;;;;;;5098437;27;19972;-80
2023/12/23 01:26:50;;;;;;;;;;;7.00;99.90;;;;;;5095891;27;19965;-79
2023/12/23 01:29:15;;;;;;;;;;;7.00;99.90;;;;;;5102708;27;20786;-81
2023/12/23 01:31:41;;;;;;;;;;;7.00;99.90;;;;;;5091035;27;19965;-82
2023/12/23 01:34:06;;;;;;;;;;;7.00;99.90;;;;;;5080448;27;19933;-83
2023/12/23 01:36:32;;;;;;;;;;;7.00;99.90;;;;;;5097767;27;19980;-83
2023/12/23 01:38:58;;;;;;;;;;;7.00;99.90;;;;;;5111992;27;20039;-83
2023/12/23 01:41:24;;;;;;;;;;;7.00;99.90;;;;;;5101824;27;19923;-79
2023/12/23 01:43:49;;;;;;;;;;;6.90;99.90;;;;;;5086180;27;19935;-83
2023/12/23 01:46:15;;;;;;;;;;;6.90;99.90;;;;;;5111226;27;20357;-81
2023/12/23 01:48:42;;;;;;;;;;;7.00;99.90;;;;;;5096906;27;20326;-83
2023/12/23 01:51:09;;;;;;;;;;;6.90;99.90;;;;;;5094841;27;20362;-84
2023/12/23 01:53:35;;;;;;;;;;;7.00;99.90;;;;;;5110656;27;19930;-84
2023/12/23 01:56:01;;;;;;;;;;;6.90;99.90;;;;;;5095231;27;19927;-81
2023/12/23 01:58:27;;;;;;;;;;;6.90;99.90;;;;;;5081516;27;19930;-79
2023/12/23 02:00:53;;;;;;;;;;;6.80;99.90;;;;;;5107656;27;19968;-84
2023/12/23 02:03:18;;;;;;;;;;;6.80;99.90;;;;;;5125578;27;19923;-82
2023/12/23 02:05:45;;;;;;;;;;;6.70;99.90;;;;;;5109197;27;19927;-87
2023/12/23 02:08:11;;;;;;;;;;;6.70;99.90;;;;;;5112636;27;19931;-81
2023/12/23 02:10:37;;;;;;;;;;;6.60;99.90;;;;;;5108654;27;19938;-80
2023/12/23 02:13:12;;;;;;;;;;;6.60;99.90;;;;;;5085215;27;19927;-85
2023/12/23 02:15:38;;;;;;;;;;;6.50;99.90;;;;;;5101854;27;19938;-80
2023/12/23 02:18:03;;;;;;;;;;;6.50;99.90;;;;;;5123950;27;19927;-84
2023/12/23 02:20:29;;;;;;;;;;;6.40;99.90;;;;;;5109000;27;19927;-82
2023/12/23 02:22:55;;;;;;;;;;;6.40;99.90;;;;;;5102450;27;19930;-85
2023/12/23 02:25:22;;;;;;;;;;;6.40;99.90;;;;;;5108064;27;19932;-80
2023/12/23 02:27:53;;;;;;;;;;;7.40;99.90;;;;;;5108908;27;20018;-81
2023/12/23 02:30:20;;;;;;;;;;;6.30;99.90;;;;;;5108174;27;19951;-84
2023/12/23 02:32:45;;;;;;;;;;;6.40;99.90;;;;;;5107637;27;19972;-78
2023/12/23 02:35:12;;;;;;;;;;;6.30;99.90;;;;;;5107327;27;19935;-84
2023/12/23 02:37:37;;;;;;;;;;;6.30;99.90;;;;;;5104497;27;19935;-85
2023/12/23 02:40:04;;;;;;;;;;;6.30;99.90;;;;;;5108550;27;19953;-86
2023/12/23 02:42:29;;;;;;;;;;;6.30;99.90;;;;;;5100595;27;19976;-80
2023/12/23 02:44:55;;;;;;;;;;;6.30;99.90;;;;;;5109333;27;19928;-85
2023/12/23 02:47:21;;;;;;;;;;;6.30;99.90;;;;;;5108669;27;19932;-85
2023/12/23 02:49:46;;;;;;;;;;;6.30;99.90;;;;;;5099371;27;20366;-81
2023/12/23 02:52:12;;;;;;;;;;;6.30;99.90;;;;;;5107492;27;19931;-79
2023/12/23 02:54:37;;;;;;;;;;;6.30;99.90;;;;;;5097800;27;19978;-83
2023/12/23 02:57:03;;;;;;;;;;;6.30;99.90;;;;;;5098390;27;20023;-87
2023/12/23 02:59:29;;;;;;;;;;;6.40;99.90;;;;;;5098500;27;19950;-85
2023/12/23 03:01:54;;;;;;;;;;;6.40;99.90;;;;;;5106879;27;19930;-87
2023/12/23 03:04:20;;;;;;;;;;;6.40;99.90;;;;;;5075354;27;20812;-78
2023/12/23 03:06:46;;;;;;;;;;;7.20;99.90;;;;;;5108454;27;19938;-84
2023/12/23 03:09:11;;;;;;;;;;;6.50;99.90;;;;;;5117639;27;20452;-83
2023/12/23 03:11:37;;;;;;;;;;;6.40;99.90;;;;;;5077283;27;19938;-80
2023/12/23 03:14:03;;;;;;;;;;;6.50;99.90;;;;;;5101603;27;19971;-84
2023/12/23 03:16:33;;;;;;;;;;;6.50;99.90;;;;;;5112895;27;20063;-84
2023/12/23 03:19:03;;;;;;;;;;;6.50;99.90;;;;;;5112545;27;20786;-82
2023/12/23 03:21:29;;;;;;;;;;;6.50;99.90;;;;;;5104165;27;19926;-81
2023/12/23 03:23:55;;;;;;;;;;;6.40;99.90;;;;;;5106804;27;20152;-83
2023/12/23 03:26:20;;;;;;;;;;;6.50;99.90;;;;;;5104896;27;20348;-87
2023/12/23 03:28:46;;;;;;;;;;;6.50;99.90;;;;;;5096956;27;19923;-81
2023/12/23 03:31:11;;;;;;;;;;;6.50;99.90;;;;;;5108573;27;19927;-81
2023/12/23 03:33:39;;;;;;;;;;;6.40;99.90;;;;;;5110189;27;19931;-78
2023/12/23 03:36:05;;;;;;;;;;;6.40;99.90;;;;;;5092678;27;19927;-78
2023/12/23 03:38:30;;;;;;;;;;;6.40;99.90;;;;;;5092299;27;20009;-82
2023/12/23 03:40:56;;;;;;;;;;;6.40;99.90;;;;;;5110139;27;20424;-84
2023/12/23 03:43:22;;;;;;;;;;;6.40;99.90;;;;;;5109770;27;19939;-78
2023/12/23 03:45:48;;;;;;;;;;;6.40;99.90;;;;;;5105547;27;19927;-86
2023/12/23 03:48:14;;;;;;;;;;;6.40;99.90;;;;;;5109298;27;19923;-85
2023/12/23 03:50:40;;;;;;;;;;;6.40;99.90;;;;;;5108921;27;19938;-86
2023/12/23 03:53:05;;;;;;;;;;;6.40;99.90;;;;;;5106634;27;20330;-80
2023/12/23 03:55:34;;;;;;;;;;;6.40;99.90;;;;;;5109747;27;19988;-84
2023/12/23 03:58:00;;;;;;;;;;;6.40;99.90;;;;;;5106052;27;19927;-86
2023/12/23 04:00:26;;;;;;;;;;;6.40;99.90;;;;;;5113499;27;19927;-84
2023/12/23 04:02:52;;;;;;;;;;;6.70;99.90;;;;;;5112589;27;19931;-83
2023/12/23 04:05:18;;;;;;;;;;;6.40;99.90;;;;;;5108752;27;19923;-85
2023/12/23 04:07:46;;;;;;;;;;;6.40;99.90;;;;;;5111271;27;20319;-82
2023/12/23 04:10:11;;;;;;;;;;;6.40;99.90;;;;;;5113376;27;19930;-80
2023/12/23 04:12:37;;;;;;;;;;;6.40;99.90;;;;;;5099900;27;19935;-79
2023/12/23 04:15:07;;;;;;;;;;;6.40;99.90;;;;;;5108440;27;19931;-85
2023/12/23 04:17:33;;;;;;;;;;;6.40;99.90;;;;;;5102765;27;19945;-85
2023/12/23 04:19:59;;;;;;;;;;;6.40;99.90;;;;;;5115060;27;19927;-83
2023/12/23 04:22:25;;;;;;;;;;;6.40;99.90;;;;;;5117059;27;20121;-83
2023/12/23 04:24:50;;;;;;;;;;;6.40;99.90;;;;;;5129491;27;19923;-84
2023/12/23 04:27:16;;;;;;;;;;;6.40;99.90;;;;;;5110477;27;19963;-85
2023/12/23 04:29:42;;;;;;;;;;;6.40;99.90;;;;;;5120257;27;19926;-78
2023/12/23 04:32:08;;;;;;;;;;;6.40;99.90;;;;;;5118848;27;19931;-78
2023/12/23 04:34:33;;;;;;;;;;;6.40;99.90;;;;;;5119023;27;20408;-79
2023/12/23 04:36:59;;;;;;;;;;;6.50;99.90;;;;;;5108885;27;19939;-78
2023/12/23 04:39:25;;;;;;;;;;;6.70;99.90;;;;;;5117038;27;19931;-80
2023/12/23 04:41:52;;;;;;;;;;;7.10;99.90;;;;;;5103597;27;20254;-85
2023/12/23 04:44:18;;;;;;;;;;;7.30;99.90;;;;;;5097770;27;19927;-84
2023/12/23 04:46:46;;;;;;;;;;;7.50;99.90;;;;;;5087418;27;20385;-82
2023/12/23 04:49:11;;;;;;;;;;;7.70;99.90;;;;;;5109162;27;20424;-81
2023/12/23 04:51:37;;;;;;;;;;;8.70;99.90;;;;;;5111477;27;19930;-79
2023/12/23 04:54:03;;;;;;;;;;;7.90;99.90;;;;;;5107903;27;19988;-81
2023/12/23 04:56:29;;;;;;;;;;;8.00;99.90;;;;;;5111445;27;19923;-84
2023/12/23 04:58:57;;;;;;;;;;;8.10;99.90;;;;;;5113678;27;19942;-84
2023/12/23 05:01:25;;;;;;;;;;;8.20;99.90;;;;;;5094702;27;19931;-79
2023/12/23 05:03:51;;;;;;;;;;;8.30;99.90;;;;;;5096791;27;19927;-84
2023/12/23 05:06:17;;;;;;;;;;;8.40;99.90;;;;;;5115474;27;20449;-82
2023/12/23 05:08:42;;;;;;;;;;;8.40;99.90;;;;;;5094055;27;19928;-80
2023/12/23 05:11:08;;;;;;;;;;;8.50;99.90;;;;;;5108936;27;19928;-79
2023/12/23 05:13:34;;;;;;;;;;;8.60;99.90;;;;;;5102067;27;19963;-84
2023/12/23 05:15:59;;;;;;;;;;;8.60;99.90;;;;;;5113148;27;20523;-85
2023/12/23 05:18:25;;;;;;;;;;;8.70;99.90;;;;;;5107341;27;19927;-86
2023/12/23 05:20:50;;;;;;;;;;;8.70;99.90;;;;;;5112199;27;20306;-82
2023/12/23 05:23:16;;;;;;;;;;;8.70;99.90;;;;;;5109826;27;20382;-88
2023/12/23 05:25:42;;;;;;;;;;;8.70;99.90;;;;;;5109162;27;20669;-81
2023/12/23 05:28:08;;;;;;;;;;;8.70;99.90;;;;;;5112528;27;20384;-83
2023/12/23 05:30:33;;;;;;;;;;;8.70;99.90;;;;;;5116172;27;19927;-85
2023/12/23 05:32:59;;;;;;;;;;;8.80;99.90;;;;;;5109634;27;20532;-80
2023/12/23 05:35:24;;;;;;;;;;;8.70;99.90;;;;;;5121228;27;20016;-82
2023/12/23 05:37:50;;;;;;;;;;;8.80;99.90;;;;;;5119208;27;19988;-82
2023/12/23 05:40:16;;;;;;;;;;;8.80;99.90;;;;;;5099070;27;20043;-80
2023/12/23 05:42:41;;;;;;;;;;;8.80;99.90;;;;;;5125364;27;19923;-81
2023/12/23 05:45:07;;;;;;;;;;;8.90;99.90;;;;;;5111790;27;19931;-83
2023/12/23 05:47:34;;;;;;;;;;;8.90;99.90;;;;;;5101535;27;19923;-82
2023/12/23 05:50:00;;;;;;;;;;;8.90;99.90;;;;;;5100704;27;21415;-87
2023/12/23 05:52:25;;;;;;;;;;;9.00;99.90;;;;;;5135090;27;19923;-84
2023/12/23 05:54:51;;;;;;;;;;;9.10;99.90;;;;;;5114301;27;20354;-84
2023/12/23 05:57:17;;;;;;;;;;;9.10;99.90;;;;;;5097328;27;19937;-88
2023/12/23 05:59:42;;;;;;;;;;;9.10;99.90;;;;;;5105727;27;19927;-83
2023/12/23 06:02:08;;;;;;;;;;;9.20;99.90;;;;;;5083254;27;19927;-88
2023/12/23 06:04:34;;;;;;;;;;;9.20;99.90;;;;;;5096675;27;19931;-86
2023/12/23 06:06:59;;;;;;;;;;;9.20;99.90;;;;;;5111165;27;19974;-80
2023/12/23 06:09:26;;;;;;;;;;;9.20;99.90;;;;;;5109711;27;19992;-84
2023/12/23 06:11:51;;;;;;;;;;;9.30;99.90;;;;;;5112218;27;20047;-83
2023/12/23 06:14:17;;;;;;;;;;;9.30;99.90;;;;;;5112118;27;19927;-84
2023/12/23 06:16:42;;;;;;;;;;;9.30;99.90;;;;;;5108535;27;20392;-80
2023/12/23 06:19:08;;;;;;;;;;;9.30;99.90;;;;;;5105120;27;19963;-82
2023/12/23 06:21:34;;;;;;;;;;;9.30;99.90;;;;;;5111990;27;19973;-81
2023/12/23 06:24:00;;;;;;;;;;;9.40;99.90;;;;;;5109239;27;19923;-79
2023/12/23 06:26:26;;;;;;;;;;;9.40;99.90;;;;;;5105101;27;19962;-86
2023/12/23 06:28:51;;;;;;;;;;;9.80;99.90;;;;;;5109361;27;20005;-87
2023/12/23 06:31:17;;;;;;;;;;;9.40;99.90;;;;;;5104345;27;19927;-83
2023/12/23 06:33:43;;;;;;;;;;;9.40;99.90;;;;;;5090000;27;19975;-81
2023/12/23 06:36:08;;;;;;;;;;;9.40;99.90;;;;;;5105161;27;19935;-83
2023/12/23 06:38:35;;;;;;;;;;;9.50;99.90;;;;;;5094103;27;19939;-81
2023/12/23 06:41:00;;;;;;;;;;;9.40;99.90;;;;;;5095249;27;19927;-86
2023/12/23 06:43:26;;;;;;;;;;;9.40;99.90;;;;;;5113350;27;19928;-86
2023/12/23 06:45:51;;;;;;;;;;;9.40;99.90;;;;;;5112878;27;20872;-87
2023/12/23 06:48:19;;;;;;;;;;;9.40;99.90;;;;;;5094169;27;19927;-84
2023/12/23 06:50:44;;;;;;;;;;;9.40;99.90;;;;;;5089921;27;19938;-81
2023/12/23 06:53:10;;;;;;;;;;;9.40;99.90;;;;;;5132712;27;19923;-85
2023/12/23 06:55:36;;;;;;;;;;;9.40;99.90;;;;;;5113400;27;20023;-79
2023/12/23 06:58:01;;;;;;;;;;;9.50;99.90;;;;;;5132267;27;20332;-85
2023/12/23 07:00:27;;;;;;;;;;;9.50;99.90;;;;;;5111567;27;20297;-80
2023/12/23 07:02:54;;;;;;;;;;;9.50;99.90;;;;;;5104341;27;20471;-87
2023/12/23 07:05:19;;;;;;;;;;;9.50;99.90;;;;;;5109559;27;19931;-86
2023/12/23 07:07:45;;;;;;;;;;;9.60;99.90;;;;;;5120908;27;19923;-83
2023/12/23 07:10:14;;;;;;;;;;;9.50;99.90;;;;;;5113443;27;20127;-81
2023/12/23 07:12:40;;;;;;;;;;;9.50;99.90;;;;;;5100250;27;19931;-82
2023/12/23 07:15:06;;;;;;;;;;;10.60;99.90;;;;;;5092913;27;20558;-87
2023/12/23 07:17:32;;;;;;;;;;;9.60;99.90;;;;;;5111759;27;19927;-86
2023/12/23 07:19:58;;;;;;;;;;;9.60;99.90;;;;;;5090788;27;20574;-81
2023/12/23 07:22:24;;;;;;;;;;;9.60;99.90;;;;;;5076745;27;20850;-81
2023/12/23 07:24:49;;;;;;;;;;;9.60;99.90;;;;;;5099549;27;20023;-84
2023/12/23 07:27:16;;;;;;;;;;;9.60;99.90;;;;;;5107484;27;20022;-84
2023/12/23 07:29:42;;;;;;;;;;;9.60;99.90;;;;;;5115650;27;19970;-80
2023/12/23 07:32:08;;;;;;;;;;;9.60;99.90;;;;;;5116602;27;19970;-84
2023/12/23 07:34:34;;;;;;;;;;;9.60;99.90;;;;;;5110684;27;19927;-79
2023/12/23 07:36:59;;;;;;;;;;;9.60;99.90;;;;;;5112847;27;19930;-82
2023/12/23 07:39:25;;;;;;;;;;;9.60;99.90;;;;;;5084724;27;20362;-88
2023/12/23 07:41:50;;;;;;;;;;;9.60;99.90;;;;;;5105942;27;19927;-84
2023/12/23 07:44:16;;;;;;;;;;;9.60;99.90;;;;;;5094853;27;20684;-86
2023/12/23 07:46:42;;;;;;;;;;;9.50;99.90;;;;;;5110561;27;19923;-80
2023/12/23 07:49:07;;;;;;;;;;;9.50;99.90;;;;;;5091114;27;20668;-87
2023/12/23 07:51:33;;;;;;;;;;;9.50;99.90;;;;;;5107447;27;19974;-84
2023/12/23 07:53:59;;;;;;;;;;;9.60;99.90;;;;;;5101353;27;19927;-81
2023/12/23 07:56:25;;;;;;;;;;;9.60;99.90;;;;;;5106064;27;20009;-82
2023/12/23 07:58:51;;;;;;;;;;;9.60;99.90;;;;;;5104241;27;20004;-84
2023/12/23 08:01:17;;;;;;;;;;;9.60;99.90;;;;;;5095786;27;19934;-82
2023/12/23 08:03:43;;;;;;;;;;;9.60;99.90;;;;;;5096197;27;19931;-81
2023/12/23 08:06:09;;;;;;;;;;;9.60;99.90;;;;;;5102015;27;19927;-80
2023/12/23 08:08:34;;;;;;;;;;;9.60;99.90;;;;;;5113104;27;20011;-81
2023/12/23 08:11:00;;;;;;;;;;;9.70;99.90;;;;;;5101668;27;20250;-82
2023/12/23 08:13:27;;;;;;;;;;;9.70;99.90;;;;;;5078807;27;20475;-80
2023/12/23 08:15:53;;;;;;;;;;;9.70;99.90;;;;;;5101130;27;19986;-87
2023/12/23 08:18:19;;;;;;;;;;;9.70;99.90;;;;;;5108504;27;19931;-81
2023/12/23 08:20:45;;;;;;;;;;;10.00;99.90;;;;;;5125048;27;19928;-83
2023/12/23 08:23:11;;;;;;;;;;;9.70;99.90;;;;;;5095846;27;19942;-82
2023/12/23 08:25:36;;;;;;;;;;;9.70;99.90;;;;;;5111756;27;19927;-83
2023/12/23 08:28:02;;;;;;;;;;;9.70;99.90;;;;;;5111606;27;19927;-83
2023/12/23 08:30:28;;;;;;;;;;;9.70;99.90;;;;;;5120067;27;19937;-85
2023/12/23 08:32:53;;;;;;;;;;;9.70;99.90;;;;;;5113570;27;20046;-84
2023/12/23 08:35:19;;;;;;;;;;;9.70;99.90;;;;;;5102454;27;19931;-86
2023/12/23 08:37:45;;;;;;;;;;;9.70;99.90;;;;;;5115961;27;19927;-84
2023/12/23 08:40:11;;;;;;;;;;;9.70;99.90;;;;;;5092311;27;20297;-84
2023/12/23 08:42:36;;;;;;;;;;;9.70;99.90;;;;;;5112162;27;19928;-82
2023/12/23 08:45:02;;;;;;;;;;;9.60;99.90;;;;;;5111471;27;20376;-83
2023/12/23 08:47:27;;;;;;;;;;;9.60;99.90;;;;;;5111270;27;20010;-83
2023/12/23 08:49:53;;;;;;;;;;;9.60;99.90;;;;;;5109882;27;20320;-83
2023/12/23 08:52:19;;;;;;;;;;;9.60;99.90;;;;;;5094451;27;19966;-83
2023/12/23 08:54:44;;;;;;;;;;;9.60;99.90;;;;;;5112481;27;19931;-83
2023/12/23 08:57:11;;;;;;;;;;;9.60;99.90;;;;;;5076621;27;19927;-81
2023/12/23 08:59:36;;;;;;;;;;;9.60;99.90;;;;;;5103236;27;20370;-81
2023/12/23 09:02:03;;;;;;;;;;;9.60;99.90;;;;;;5091420;27;19929;-82
2023/12/23 09:04:29;;;;;;;;;;;9.60;99.90;;;;;;5112680;27;19927;-81
2023/12/23 09:06:58;;;;;;;;;;;9.60;99.90;;;;;;5110205;27;19931;-84
2023/12/23 09:09:24;;;;;;;;;;;9.60;99.90;;;;;;5103144;27;19931;-82
2023/12/23 09:11:50;;;;;;;;;;;9.60;99.90;;;;;;5107390;27;19937;-83
2023/12/23 09:14:16;;;;;;;;;;;9.60;99.90;;;;;;5093464;27;19940;-82
2023/12/23 09:16:42;;;;;;;;;;;9.60;99.90;;;;;;5112498;27;20360;-81
2023/12/23 09:19:07;;;;;;;;;;;9.60;99.90;;;;;;5106151;27;19933;-85
2023/12/23 09:21:33;;;;;;;;;;;9.60;99.90;;;;;;5106393;27;20637;-83
2023/12/23 09:23:59;;;;;;;;;;;9.60;99.90;;;;;;5122223;27;19931;-82
2023/12/23 09:26:24;;;;;;;;;;;9.50;99.90;;;;;;5075478;27;19927;-85
2023/12/23 09:28:50;;;;;;;;;;;9.60;99.90;;;;;;5113037;27;19973;-84
2023/12/23 09:31:16;;;;;;;;;;;9.50;99.90;;;;;;5113105;27;19928;-86
2023/12/23 09:33:42;;;;;;;;;;;9.50;99.90;;;;;;5109898;27;20327;-81
2023/12/23 09:36:07;;;;;;;;;;;10.30;99.90;;;;;;5099798;27;19942;-80
2023/12/23 09:38:33;;;;;;;;;;;9.60;99.90;;;;;;5107336;27;20685;-84
2023/12/23 09:40:58;;;;;;;;;;;9.60;99.90;;;;;;5096907;27;19928;-82
2023/12/23 09:43:24;;;;;;;;;;;9.60;99.90;;;;;;5104353;27;19934;-84
2023/12/23 09:45:51;;;;;;;;;;;9.60;99.90;;;;;;5103713;27;20296;-82
2023/12/23 09:48:17;;;;;;;;;;;9.60;99.90;;;;;;5109854;27;19931;-81
2023/12/23 09:50:43;;;;;;;;;;;9.60;99.90;;;;;;5101411;27;20302;-82
2023/12/23 09:53:12;;;;;;;;;;;9.60;99.90;;;;;;5105390;27;19935;-82
2023/12/23 09:55:38;;;;;;;;;;;9.60;99.90;;;;;;5122712;27;19938;-81
2023/12/23 09:58:04;;;;;;;;;;;9.60;99.90;;;;;;5102077;27;20018;-82
2023/12/23 10:00:30;;;;;;;;;;;9.70;99.90;;;;;;5110838;27;19956;-81
2023/12/23 10:02:55;;;;;;;;;;;9.60;99.90;;;;;;5111437;27;19923;-80
2023/12/23 10:05:21;;;;;;;;;;;9.70;99.90;;;;;;5086029;27;19938;-82
2023/12/23 10:07:46;;;;;;;;;;;9.70;99.90;;;;;;5124977;27;20394;-83
2023/12/23 10:10:18;;;;;;;;;;;9.70;99.90;;;;;;5107149;27;19927;-82
2023/12/23 10:12:44;;;;;;;;;;;9.70;99.90;;;;;;5101455;27;19927;-82
2023/12/23 10:15:11;;;;;;;;;;;9.70;99.90;;;;;;5133337;27;20816;-82
2023/12/23 10:17:37;;;;;;;;;;;9.60;99.90;;;;;;5104797;27;19923;-80
2023/12/23 10:20:03;;;;;;;;;;;9.60;99.90;;;;;;5110064;27;19933;-80
2023/12/23 10:22:29;;;;;;;;;;;9.50;99.90;;;;;;5108701;27;19927;-80
2023/12/23 10:24:55;;;;;;;;;;;9.50;99.90;;;;;;5095795;27;19923;-82
2023/12/23 10:27:22;;;;;;;;;;;9.40;99.90;;;;;;5108920;27;19923;-84
2023/12/23 10:29:51;;;;;;;;;;;9.40;99.90;;;;;;5101274;27;19979;-81
2023/12/23 10:32:21;;;;;;;;;;;9.40;99.90;;;;;;5120856;27;20002;-82
2023/12/23 10:34:48;;;;;;;;;;;9.40;99.90;;;;;;5103401;27;20010;-82
2023/12/23 10:37:15;;;;;;;;;;;9.40;99.90;;;;;;5102690;27;19931;-82
2023/12/23 10:40:07;;;;;;;;;;;9.40;99.90;;;;;;5104257;27;19928;-83
2023/12/23 10:42:35;;;;;;;;;;;9.40;99.90;;;;;;5087270;27;19927;-81
2023/12/23 10:45:01;;;;;;;;;;;9.30;99.90;;;;;;5130600;27;19954;-79
2023/12/23 10:47:28;;;;;;;;;;;9.30;99.90;;;;;;5111609;27;19927;-81
2023/12/23 10:49:56;;;;;;;;;;;9.30;99.90;;;;;;5104239;27;19973;-81
2023/12/23 10:52:22;;;;;;;;;;;9.30;99.90;;;;;;5109584;27;19924;-83
2023/12/23 10:54:48;;;;;;;;;;;9.30;99.90;;;;;;5116817;27;19927;-82
2023/12/23 10:57:14;;;;;;;;;;;9.30;99.90;;;;;;5114083;27;19928;-80
2023/12/23 10:59:40;;;;;;;;;;;9.30;99.90;;;;;;5112696;27;20380;-82
2023/12/23 11:02:13;;;;;;;;;;;9.40;99.90;;;;;;5109832;27;19927;-79
2023/12/23 11:04:41;;;;;;;;;;;9.40;99.90;;;;;;5104339;27;20206;-81
2023/12/23 11:07:08;;;;;;;;;;;9.40;99.90;;;;;;5105933;27;19927;-83
2023/12/23 11:09:34;;;;;;;;;;;9.50;99.90;;;;;;5090180;27;19938;-80
2023/12/23 11:11:59;;;;;;;;;;;9.50;99.90;;;;;;5110785;27;19932;-82
2023/12/23 11:14:25;;;;;;;;;;;9.50;99.90;;;;;;5103720;27;19934;-81
2023/12/23 11:16:55;;;;;;;;;;;9.60;99.90;;;;;;5112207;27;19927;-83
2023/12/23 11:19:20;;;;;;;;;;;9.60;99.90;;;;;;5118550;27;19938;-81
2023/12/23 11:21:46;;;;;;;;;;;9.60;99.90;;;;;;5104880;27;20289;-81
2023/12/23 11:24:41;;;;;;;;;;;9.70;99.90;;;;;;5109283;27;19923;-79
2023/12/23 11:27:08;;;;;;;;;;;9.70;99.90;;;;;;5099709;27;20021;-80
2023/12/23 11:29:33;;;;;;;;;;;9.70;99.90;;;;;;5119583;27;19924;-82
2023/12/23 11:32:09;;;;;;;;;;;9.80;99.90;;;;;;5135133;27;20015;-81
2023/12/23 11:34:34;;;;;;;;;;;9.80;99.90;;;;;;5109047;27;20138;-82
2023/12/23 11:37:00;;;;;;;;;;;9.80;99.90;;;;;;5118829;27;19928;-83
2023/12/23 11:39:26;;;;;;;;;;;9.80;99.90;;;;;;5109577;27;19930;-82
2023/12/23 11:41:51;;;;;;;;;;;9.80;99.90;;;;;;5132272;27;19937;-81
2023/12/23 11:44:17;;;;;;;;;;;9.80;99.90;;;;;;5098932;27;20309;-82
2023/12/23 11:46:43;;;;;;;;;;;9.90;99.90;;;;;;5102856;27;19927;-83
2023/12/23 11:49:09;;;;;;;;;;;9.90;99.90;;;;;;5115914;27;20084;-80
2023/12/23 11:51:37;;;;;;;;;;;9.90;99.90;;;;;;5119811;27;19938;-83
2023/12/23 11:54:02;;;;;;;;;;;10.00;99.90;;;;;;5110814;27;20407;-82
2023/12/23 11:56:28;;;;;;;;;;;10.00;99.90;;;;;;5105141;27;19928;-85
2023/12/23 11:58:54;;;;;;;;;;;10.00;99.90;;;;;;5116329;27;20017;-84
2023/12/23 12:01:19;;;;;;;;;;;10.00;99.90;;;;;;5086412;27;19931;-83
2023/12/23 12:03:46;;;;;;;;;;;10.00;99.90;;;;;;5113069;27;19927;-83
2023/12/23 12:06:12;;;;;;;;;;;10.00;99.90;;;;;;5111445;27;20613;-81
2023/12/23 12:08:38;;;;;;;;;;;9.90;99.90;;;;;;5117586;27;19927;-84
2023/12/23 12:11:03;;;;;;;;;;;9.90;99.90;;;;;;5112647;27;19930;-83
2023/12/23 12:13:38;;;;;;;;;;;10.00;99.90;;;;;;5116240;27;19927;-83
2023/12/23 12:16:04;;;;;;;;;;;9.90;99.90;;;;;;5104047;27;20350;-83
2023/12/23 12:18:30;;;;;;;;;;;10.00;99.90;;;;;;5113859;27;19931;-85
2023/12/23 12:20:57;;;;;;;;;;;9.90;99.90;;;;;;5112450;27;19927;-83
2023/12/23 12:23:22;;;;;;;;;;;9.90;99.90;;;;;;5111279;27;19924;-85
2023/12/23 12:25:49;;;;;;;;;;;9.90;99.90;;;;;;5094615;27;20518;-81
2023/12/23 12:28:15;;;;;;;;;;;9.90;99.90;;;;;;5128929;27;19933;-85
2023/12/23 12:30:40;;;;;;;;;;;9.90;99.90;;;;;;5129856;27;19959;-83
2023/12/23 12:33:08;;;;;;;;;;;9.90;99.90;;;;;;5106798;27;20013;-81
2023/12/23 12:35:34;;;;;;;;;;;10.00;99.90;;;;;;5107550;27;20605;-83
2023/12/23 12:37:59;;;;;;;;;;;10.00;99.90;;;;;;5108648;27;20015;-83
2023/12/23 12:40:25;;;;;;;;;;;10.00;99.90;;;;;;5115427;27;19992;-82
2023/12/23 12:42:51;;;;;;;;;;;10.00;99.90;;;;;;5128190;27;20411;-84
2023/12/23 12:45:17;;;;;;;;;;;10.00;99.90;;;;;;5127845;27;19931;-81
2023/12/23 12:47:44;;;;;;;;;;;10.00;99.90;;;;;;5117486;27;20293;-84
2023/12/23 12:50:09;;;;;;;;;;;9.90;99.90;;;;;;5115362;27;20384;-83
2023/12/23 12:52:35;;;;;;;;;;;9.90;99.90;;;;;;5105166;27;20018;-83
2023/12/23 12:55:04;;;;;;;;;;;10.00;99.90;;;;;;5091257;27;19948;-81
2023/12/23 12:57:29;;;;;;;;;;;9.90;99.90;;;;;;5108696;27;19931;-83
2023/12/23 12:59:55;;;;;;;;;;;9.90;99.90;;;;;;5091398;27;20172;-84
2023/12/23 13:02:21;;;;;;;;;;;9.90;99.90;;;;;;5094346;27;20019;-84
2023/12/23 13:04:47;;;;;;;;;;;9.90;99.90;;;;;;5111767;27;19932;-81
2023/12/23 13:07:13;;;;;;;;;;;9.90;99.90;;;;;;5103272;27;19923;-84
2023/12/23 13:09:38;;;;;;;;;;;9.90;99.90;;;;;;5115992;27;20010;-84
2023/12/23 13:12:06;;;;;;;;;;;9.90;99.90;;;;;;5112836;27;19928;-83
2023/12/23 13:14:32;;;;;;;;;;;9.90;99.90;;;;;;5106701;27;20419;-84
2023/12/23 13:16:58;;;;;;;;;;;9.90;99.90;;;;;;5100746;27;20397;-81
2023/12/23 13:19:23;;;;;;;;;;;9.80;99.90;;;;;;5116823;27;20293;-84
2023/12/23 13:21:49;;;;;;;;;;;9.80;99.90;;;;;;5099481;27;19931;-84
2023/12/23 13:24:15;;;;;;;;;;;9.90;99.90;;;;;;5091626;27;19938;-81
2023/12/23 13:26:41;;;;;;;;;;;9.90;99.90;;;;;;5109897;27;20314;-83
2023/12/23 13:29:07;;;;;;;;;;;9.80;99.90;;;;;;5083936;27;20010;-82
2023/12/23 13:31:33;;;;;;;;;;;9.80;99.90;;;;;;5104382;27;19927;-84
2023/12/23 13:33:58;;;;;;;;;;;9.80;99.90;;;;;;5097663;27;19938;-81
2023/12/23 13:36:24;;;;;;;;;;;9.90;99.90;;;;;;5122597;27;19934;-81
2023/12/23 13:38:50;;;;;;;;;;;9.80;99.90;;;;;;5099049;27;20022;-82
2023/12/23 13:41:20;;;;;;;;;;;9.80;99.90;;;;;;5112544;27;19930;-83
2023/12/23 13:43:46;;;;;;;;;;;9.80;99.90;;;;;;5107545;27;20355;-83
2023/12/23 13:46:13;;;;;;;;;;;9.80;99.90;;;;;;5111411;27;19937;-80
2023/12/23 13:48:38;;;;;;;;;;;9.80;99.90;;;;;;5110824;27;20400;-83
2023/12/23 13:51:04;;;;;;;;;;;9.80;99.90;;;;;;5125388;27;19923;-81
2023/12/23 13:53:30;;;;;;;;;;;9.80;99.90;;;;;;5087244;27;20396;-83
2023/12/23 13:55:55;;;;;;;;;;;9.80;99.90;;;;;;5114287;27;19923;-81
2023/12/23 13:58:21;;;;;;;;;;;9.80;99.90;;;;;;5112082;27;21039;-82
2023/12/23 14:00:46;;;;;;;;;;;9.80;99.90;;;;;;5079921;27;19923;-80
2023/12/23 14:03:12;;;;;;;;;;;9.80;99.90;;;;;;5094815;27;20499;-80
2023/12/23 14:05:39;;;;;;;;;;;9.80;99.90;;;;;;5097608;27;19926;-84
2023/12/23 14:08:05;;;;;;;;;;;9.80;99.90;;;;;;5111683;27;20045;-82
2023/12/23 14:10:30;;;;;;;;;;;9.80;99.90;;;;;;5096355;27;19938;-81
2023/12/23 14:12:56;;;;;;;;;;;9.80;99.90;;;;;;5101127;27;19931;-81
2023/12/23 14:15:21;;;;;;;;;;;9.80;99.90;;;;;;5093712;27;19923;-80
2023/12/23 14:17:47;;;;;;;;;;;9.80;99.90;;;;;;5099832;27;19923;-81
2023/12/23 14:20:13;;;;;;;;;;;9.80;99.90;;;;;;5115115;27;19932;-81
2023/12/23 14:22:38;;;;;;;;;;;9.70;99.90;;;;;;5115931;27;19941;-81